sensor_id;sensor_type;location;lat;lon;timestamp;temperature;humidity
60717;DHT22;46566;52.700;6.192;2023-04-08T00:02:12;6.10;99.90
60717;DHT22;46566;52.700;6.192;2023-04-08T00:04:37;6.10;99.90
60717;DHT22;46566;52.700;6.192;2023-04-08T00:07:03;6.10;99.90
60717;DHT22;46566;52.700;6.192;2023-04-08T00:09:28;6.00;99.90
60717;DHT22;46566;52.700;6.192;2023-04-08T00:11:54;6.00;99.90
60717;DHT22;46566;52.700;6.192;2023-04-08T00:14:21;6.00;99.90
60717;DHT22;46566;52.700;6.192;2023-04-08T00:16:46;6.00;99.90
60717;DHT22;46566;52.700;6.192;2023-04-08T00:19:12;6.00;99.90
60717;DHT22;46566;52.700;6.192;2023-04-08T00:21:38;5.90;99.90
60717;DHT22;46566;52.700;6.192;2023-04-08T00:24:03;5.90;99.90
60717;DHT22;46566;52.700;6.192;2023-04-08T00:26:29;5.90;99.90
60717;DHT22;46566;52.700;6.192;2023-04-08T00:28:55;5.80;99.90
60717;DHT22;46566;52.700;6.192;2023-04-08T00:31:21;5.80;99.90
60717;DHT22;46566;52.700;6.192;2023-04-08T00:33:46;5.80;99.90
60717;DHT22;46566;52.700;6.192;2023-04-08T00:36:12;5.70;99.90
60717;DHT22;46566;52.700;6.192;2023-04-08T00:38:38;5.70;99.90
60717;DHT22;46566;52.700;6.192;2023-04-08T00:41:03;5.60;99.90
60717;DHT22;46566;52.700;6.192;2023-04-08T00:43:29;5.60;99.90
60717;DHT22;46566;52.700;6.192;2023-04-08T00:45:55;5.60;99.90
60717;DHT22;46566;52.700;6.192;2023-04-08T00:48:20;5.60;99.90
60717;DHT22;46566;52.700;6.192;2023-04-08T00:50:46;5.60;99.90
60717;DHT22;46566;52.700;6.192;2023-04-08T00:53:16;5.50;99.90
60717;DHT22;46566;52.700;6.192;2023-04-08T00:55:42;5.50;99.90
60717;DHT22;46566;52.700;6.192;2023-04-08T00:58:08;5.50;99.90
60717;DHT22;46566;52.700;6.192;2023-04-08T01:00:34;5.50;99.90
60717;DHT22;46566;52.700;6.192;2023-04-08T01:03:13;5.40;99.90
60717;DHT22;46566;52.700;6.192;2023-04-08T01:06:00;5.40;99.90
60717;DHT22;46566;52.700;6.192;2023-04-08T01:08:29;5.40;99.90
60717;DHT22;46566;52.700;6.192;2023-04-08T01:10:57;5.30;99.90
60717;DHT22;46566;52.700;6.192;2023-04-08T01:13:23;5.30;99.90
60717;DHT22;46566;52.700;6.192;2023-04-08T01:15:50;5.30;99.90
60717;DHT22;46566;52.700;6.192;2023-04-08T01:18:16;5.20;99.90
60717;DHT22;46566;52.700;6.192;2023-04-08T01:20:43;5.20;99.90
60717;DHT22;46566;52.700;6.192;2023-04-08T01:23:14;5.20;99.90
60717;DHT22;46566;52.700;6.192;2023-04-08T01:25:46;5.20;99.90
60717;DHT22;46566;52.700;6.192;2023-04-08T01:28:14;5.10;99.90
60717;DHT22;46566;52.700;6.192;2023-04-08T01:30:41;5.10;99.90
60717;DHT22;46566;52.700;6.192;2023-04-08T01:33:09;5.00;99.90
60717;DHT22;46566;52.700;6.192;2023-04-08T01:35:35;5.00;99.90
60717;DHT22;46566;52.700;6.192;2023-04-08T01:38:01;5.00;99.90
60717;DHT22;46566;52.700;6.192;2023-04-08T01:40:27;5.00;99.90
60717;DHT22;46566;52.700;6.192;2023-04-08T01:42:54;4.90;99.90
60717;DHT22;46566;52.700;6.192;2023-04-08T01:45:21;4.90;99.90
60717;DHT22;46566;52.700;6.192;2023-04-08T01:47:47;4.90;99.90
60717;DHT22;46566;52.700;6.192;2023-04-08T01:50:13;4.90;99.90
60717;DHT22;46566;52.700;6.192;2023-04-08T01:52:40;4.80;99.90
60717;DHT22;46566;52.700;6.192;2023-04-08T01:55:07;4.90;99.90
60717;DHT22;46566;52.700;6.192;2023-04-08T01:57:34;4.90;99.90
60717;DHT22;46566;52.700;6.192;2023-04-08T02:00:05;4.90;99.90
60717;DHT22;46566;52.700;6.192;2023-04-08T02:02:45;4.90;99.90
60717;DHT22;46566;52.700;6.192;2023-04-08T02:05:12;4.80;99.90
60717;DHT22;46566;52.700;6.192;2023-04-08T02:07:37;4.80;99.90
60717;DHT22;46566;52.700;6.192;2023-04-08T02:10:03;4.80;99.90
60717;DHT22;46566;52.700;6.192;2023-04-08T02:12:29;4.80;99.90
60717;DHT22;46566;52.700;6.192;2023-04-08T02:14:55;4.70;99.90
60717;DHT22;46566;52.700;6.192;2023-04-08T02:19:50;4.70;99.90
60717;DHT22;46566;52.700;6.192;2023-04-08T02:22:22;4.70;99.90
60717;DHT22;46566;52.700;6.192;2023-04-08T02:24:49;4.70;99.90
60717;DHT22;46566;52.700;6.192;2023-04-08T02:27:16;4.80;99.90
60717;DHT22;46566;52.700;6.192;2023-04-08T02:29:42;4.70;99.90
60717;DHT22;46566;52.700;6.192;2023-04-08T02:32:09;4.70;99.90
60717;DHT22;46566;52.700;6.192;2023-04-08T02:34:35;4.70;99.90
60717;DHT22;46566;52.700;6.192;2023-04-08T02:37:01;4.70;99.90
60717;DHT22;46566;52.700;6.192;2023-04-08T02:39:30;4.60;99.90
60717;DHT22;46566;52.700;6.192;2023-04-08T02:41:56;4.50;99.90
60717;DHT22;46566;52.700;6.192;2023-04-08T02:44:22;4.40;99.90
60717;DHT22;46566;52.700;6.192;2023-04-08T02:46:48;4.40;99.90
60717;DHT22;46566;52.700;6.192;2023-04-08T02:49:13;4.40;99.90
60717;DHT22;46566;52.700;6.192;2023-04-08T02:51:39;4.40;99.90
60717;DHT22;46566;52.700;6.192;2023-04-08T02:54:05;4.40;99.90
60717;DHT22;46566;52.700;6.192;2023-04-08T02:56:31;4.40;99.90
60717;DHT22;46566;52.700;6.192;2023-04-08T02:58:56;4.30;99.90
60717;DHT22;46566;52.700;6.192;2023-04-08T03:01:22;4.30;99.90
60717;DHT22;46566;52.700;6.192;2023-04-08T03:03:48;4.30;99.90
60717;DHT22;46566;52.700;6.192;2023-04-08T03:06:13;4.20;99.90
60717;DHT22;46566;52.700;6.192;2023-04-08T03:08:39;4.30;99.90
60717;DHT22;46566;52.700;6.192;2023-04-08T03:11:05;4.20;99.90
60717;DHT22;46566;52.700;6.192;2023-04-08T03:13:30;4.20;99.90
60717;DHT22;46566;52.700;6.192;2023-04-08T03:15:56;4.20;99.90
60717;DHT22;46566;52.700;6.192;2023-04-08T03:18:21;4.10;99.90
60717;DHT22;46566;52.700;6.192;2023-04-08T03:20:47;4.10;99.90
60717;DHT22;46566;52.700;6.192;2023-04-08T03:23:13;4.10;99.90
60717;DHT22;46566;52.700;6.192;2023-04-08T03:25:38;4.10;99.90
60717;DHT22;46566;52.700;6.192;2023-04-08T03:28:04;4.10;99.90
60717;DHT22;46566;52.700;6.192;2023-04-08T03:30:30;4.00;99.90
60717;DHT22;46566;52.700;6.192;2023-04-08T03:32:55;4.00;99.90
60717;DHT22;46566;52.700;6.192;2023-04-08T03:35:21;4.00;99.90
60717;DHT22;46566;52.700;6.192;2023-04-08T03:37:47;4.00;99.90
60717;DHT22;46566;52.700;6.192;2023-04-08T03:40:12;4.00;99.90
60717;DHT22;46566;52.700;6.192;2023-04-08T03:42:38;3.90;99.90
60717;DHT22;46566;52.700;6.192;2023-04-08T03:45:04;3.90;99.90
60717;DHT22;46566;52.700;6.192;2023-04-08T03:47:30;3.80;99.90
60717;DHT22;46566;52.700;6.192;2023-04-08T03:49:55;3.80;99.90
60717;DHT22;46566;52.700;6.192;2023-04-08T03:52:21;3.90;99.90
60717;DHT22;46566;52.700;6.192;2023-04-08T03:54:47;3.80;99.90
60717;DHT22;46566;52.700;6.192;2023-04-08T03:57:12;3.80;99.90
60717;DHT22;46566;52.700;6.192;2023-04-08T03:59:38;3.80;99.90
60717;DHT22;46566;52.700;6.192;2023-04-08T04:02:05;3.80;99.90
60717;DHT22;46566;52.700;6.192;2023-04-08T04:04:31;3.80;99.90
60717;DHT22;46566;52.700;6.192;2023-04-08T04:06:56;3.70;99.90
60717;DHT22;46566;52.700;6.192;2023-04-08T04:09:22;3.70;99.90
60717;DHT22;46566;52.700;6.192;2023-04-08T04:11:48;3.70;99.90
60717;DHT22;46566;52.700;6.192;2023-04-08T04:14:13;3.60;99.90
60717;DHT22;46566;52.700;6.192;2023-04-08T04:16:39;3.60;99.90
60717;DHT22;46566;52.700;6.192;2023-04-08T04:19:04;3.60;99.90
60717;DHT22;46566;52.700;6.192;2023-04-08T04:21:30;3.60;99.90
60717;DHT22;46566;52.700;6.192;2023-04-08T04:23:56;3.60;99.90
60717;DHT22;46566;52.700;6.192;2023-04-08T04:26:21;3.60;99.90
60717;DHT22;46566;52.700;6.192;2023-04-08T04:28:47;3.60;99.90
60717;DHT22;46566;52.700;6.192;2023-04-08T04:31:22;3.60;99.90
60717;DHT22;46566;52.700;6.192;2023-04-08T04:33:50;3.50;99.90
60717;DHT22;46566;52.700;6.192;2023-04-08T04:36:16;3.60;99.90
60717;DHT22;46566;52.700;6.192;2023-04-08T04:38:42;3.50;99.90
60717;DHT22;46566;52.700;6.192;2023-04-08T04:41:07;3.40;99.90
60717;DHT22;46566;52.700;6.192;2023-04-08T04:43:33;3.50;99.90
60717;DHT22;46566;52.700;6.192;2023-04-08T04:45:59;3.40;99.90
60717;DHT22;46566;52.700;6.192;2023-04-08T04:48:25;3.30;99.90
60717;DHT22;46566;52.700;6.192;2023-04-08T04:50:54;3.40;99.90
60717;DHT22;46566;52.700;6.192;2023-04-08T04:53:20;3.30;99.90
60717;DHT22;46566;52.700;6.192;2023-04-08T04:55:45;3.30;99.90
60717;DHT22;46566;52.700;6.192;2023-04-08T04:58:11;3.30;99.90
60717;DHT22;46566;52.700;6.192;2023-04-08T05:00:37;3.30;99.90
60717;DHT22;46566;52.700;6.192;2023-04-08T05:03:03;3.30;99.90
60717;DHT22;46566;52.700;6.192;2023-04-08T05:05:28;3.30;99.90
60717;DHT22;46566;52.700;6.192;2023-04-08T05:07:54;3.30;99.90
60717;DHT22;46566;52.700;6.192;2023-04-08T05:10:20;3.30;99.90
60717;DHT22;46566;52.700;6.192;2023-04-08T05:12:46;3.30;99.90
60717;DHT22;46566;52.700;6.192;2023-04-08T05:15:11;3.30;99.90
60717;DHT22;46566;52.700;6.192;2023-04-08T05:17:37;3.30;99.90
60717;DHT22;46566;52.700;6.192;2023-04-08T05:20:03;3.30;99.90
60717;DHT22;46566;52.700;6.192;2023-04-08T05:22:28;3.30;99.90
60717;DHT22;46566;52.700;6.192;2023-04-08T05:24:54;3.30;99.90
60717;DHT22;46566;52.700;6.192;2023-04-08T05:27:20;3.30;99.90
60717;DHT22;46566;52.700;6.192;2023-04-08T05:29:46;3.30;99.90
60717;DHT22;46566;52.700;6.192;2023-04-08T05:32:11;3.40;99.90
60717;DHT22;46566;52.700;6.192;2023-04-08T05:34:37;3.40;99.90
60717;DHT22;46566;52.700;6.192;2023-04-08T05:37:03;3.40;99.90
60717;DHT22;46566;52.700;6.192;2023-04-08T05:39:28;3.40;99.90
60717;DHT22;46566;52.700;6.192;2023-04-08T05:41:54;3.40;99.90
60717;DHT22;46566;52.700;6.192;2023-04-08T05:44:20;3.50;99.90
60717;DHT22;46566;52.700;6.192;2023-04-08T05:46:45;3.50;99.90
60717;DHT22;46566;52.700;6.192;2023-04-08T05:49:11;3.60;99.90
60717;DHT22;46566;52.700;6.192;2023-04-08T05:51:37;3.50;99.90
60717;DHT22;46566;52.700;6.192;2023-04-08T05:54:03;3.50;99.90
60717;DHT22;46566;52.700;6.192;2023-04-08T05:56:29;3.60;99.90
60717;DHT22;46566;52.700;6.192;2023-04-08T05:58:56;3.60;99.90
60717;DHT22;46566;52.700;6.192;2023-04-08T06:01:22;3.60;99.90
60717;DHT22;46566;52.700;6.192;2023-04-08T06:03:47;3.60;99.90
60717;DHT22;46566;52.700;6.192;2023-04-08T06:06:13;3.70;99.90
60717;DHT22;46566;52.700;6.192;2023-04-08T06:08:39;3.70;99.90
60717;DHT22;46566;52.700;6.192;2023-04-08T06:11:04;3.80;99.90
60717;DHT22;46566;52.700;6.192;2023-04-08T06:13:30;3.80;99.90
60717;DHT22;46566;52.700;6.192;2023-04-08T06:15:56;3.80;99.90
60717;DHT22;46566;52.700;6.192;2023-04-08T06:18:22;3.90;99.90
60717;DHT22;46566;52.700;6.192;2023-04-08T06:20:47;3.90;99.90
60717;DHT22;46566;52.700;6.192;2023-04-08T06:23:13;4.00;99.90
60717;DHT22;46566;52.700;6.192;2023-04-08T06:25:39;4.10;99.90
60717;DHT22;46566;52.700;6.192;2023-04-08T06:28:04;4.10;99.90
60717;DHT22;46566;52.700;6.192;2023-04-08T06:30:30;4.20;99.90
60717;DHT22;46566;52.700;6.192;2023-04-08T06:32:56;4.20;99.90
60717;DHT22;46566;52.700;6.192;2023-04-08T06:35:21;4.20;99.90
60717;DHT22;46566;52.700;6.192;2023-04-08T06:37:47;4.20;99.90
60717;DHT22;46566;52.700;6.192;2023-04-08T06:40:13;4.20;99.90
60717;DHT22;46566;52.700;6.192;2023-04-08T06:42:38;4.30;99.90
60717;DHT22;46566;52.700;6.192;2023-04-08T06:45:29;4.30;99.90
60717;DHT22;46566;52.700;6.192;2023-04-08T06:47:56;4.40;99.90
60717;DHT22;46566;52.700;6.192;2023-04-08T06:50:22;4.40;99.90
60717;DHT22;46566;52.700;6.192;2023-04-08T06:52:48;4.50;99.90
60717;DHT22;46566;52.700;6.192;2023-04-08T06:55:13;4.50;99.90
60717;DHT22;46566;52.700;6.192;2023-04-08T06:57:39;4.60;99.90
60717;DHT22;46566;52.700;6.192;2023-04-08T07:00:05;4.70;99.90
60717;DHT22;46566;52.700;6.192;2023-04-08T07:02:31;4.70;99.90
60717;DHT22;46566;52.700;6.192;2023-04-08T07:04:57;4.80;99.90
60717;DHT22;46566;52.700;6.192;2023-04-08T07:07:22;4.80;99.90
60717;DHT22;46566;52.700;6.192;2023-04-08T07:09:49;4.90;99.90
60717;DHT22;46566;52.700;6.192;2023-04-08T07:12:15;5.00;99.90
60717;DHT22;46566;52.700;6.192;2023-04-08T07:14:40;5.10;99.90
60717;DHT22;46566;52.700;6.192;2023-04-08T07:17:06;5.20;99.90
60717;DHT22;46566;52.700;6.192;2023-04-08T07:19:32;5.30;99.90
60717;DHT22;46566;52.700;6.192;2023-04-08T07:21:57;5.40;99.90
60717;DHT22;46566;52.700;6.192;2023-04-08T07:24:23;5.50;99.90
60717;DHT22;46566;52.700;6.192;2023-04-08T07:26:49;5.60;99.90
60717;DHT22;46566;52.700;6.192;2023-04-08T07:29:14;5.60;99.90
60717;DHT22;46566;52.700;6.192;2023-04-08T07:31:43;5.70;99.90
60717;DHT22;46566;52.700;6.192;2023-04-08T07:34:09;5.80;99.90
60717;DHT22;46566;52.700;6.192;2023-04-08T07:36:35;5.90;99.90
60717;DHT22;46566;52.700;6.192;2023-04-08T07:39:01;5.90;99.90
60717;DHT22;46566;52.700;6.192;2023-04-08T07:41:27;6.00;99.90
60717;DHT22;46566;52.700;6.192;2023-04-08T07:43:53;6.10;99.90
60717;DHT22;46566;52.700;6.192;2023-04-08T07:46:19;6.20;99.90
60717;DHT22;46566;52.700;6.192;2023-04-08T07:48:45;6.20;99.90
60717;DHT22;46566;52.700;6.192;2023-04-08T07:51:11;6.30;99.90
60717;DHT22;46566;52.700;6.192;2023-04-08T07:53:36;6.30;99.90
60717;DHT22;46566;52.700;6.192;2023-04-08T07:56:02;6.40;99.90
60717;DHT22;46566;52.700;6.192;2023-04-08T07:58:28;6.50;99.90
60717;DHT22;46566;52.700;6.192;2023-04-08T08:00:54;6.50;99.90
60717;DHT22;46566;52.700;6.192;2023-04-08T08:03:21;6.60;99.90
60717;DHT22;46566;52.700;6.192;2023-04-08T08:05:47;6.70;99.90
60717;DHT22;46566;52.700;6.192;2023-04-08T08:08:13;6.80;99.90
60717;DHT22;46566;52.700;6.192;2023-04-08T08:10:39;6.80;99.90
60717;DHT22;46566;52.700;6.192;2023-04-08T08:13:05;6.90;99.90
60717;DHT22;46566;52.700;6.192;2023-04-08T08:15:31;7.00;99.90
60717;DHT22;46566;52.700;6.192;2023-04-08T08:17:56;7.00;99.90
60717;DHT22;46566;52.700;6.192;2023-04-08T08:20:22;7.10;99.90
60717;DHT22;46566;52.700;6.192;2023-04-08T08:22:48;7.20;99.90
60717;DHT22;46566;52.700;6.192;2023-04-08T08:25:13;7.30;99.90
60717;DHT22;46566;52.700;6.192;2023-04-08T08:27:39;7.40;99.90
60717;DHT22;46566;52.700;6.192;2023-04-08T08:30:06;7.60;99.90
60717;DHT22;46566;52.700;6.192;2023-04-08T08:32:33;7.90;99.90
60717;DHT22;46566;52.700;6.192;2023-04-08T08:34:58;9.20;99.90
60717;DHT22;46566;52.700;6.192;2023-04-08T08:39:50;10.60;99.90
60717;DHT22;46566;52.700;6.192;2023-04-08T08:44:45;12.20;99.90
60717;DHT22;46566;52.700;6.192;2023-04-08T08:47:11;12.20;99.90
60717;DHT22;46566;52.700;6.192;2023-04-08T08:49:36;12.30;99.90
60717;DHT22;46566;52.700;6.192;2023-04-08T08:52:02;12.60;99.90
60717;DHT22;46566;52.700;6.192;2023-04-08T08:54:28;12.60;99.90
60717;DHT22;46566;52.700;6.192;2023-04-08T08:59:19;12.80;99.90
60717;DHT22;46566;52.700;6.192;2023-04-08T09:01:45;13.60;99.90
60717;DHT22;46566;52.700;6.192;2023-04-08T09:04:15;14.30;99.90
60717;DHT22;46566;52.700;6.192;2023-04-08T09:06:43;14.80;99.90
60717;DHT22;46566;52.700;6.192;2023-04-08T09:09:09;14.90;99.90
60717;DHT22;46566;52.700;6.192;2023-04-08T09:11:35;14.90;99.90
60717;DHT22;46566;52.700;6.192;2023-04-08T09:14:01;15.20;99.90
60717;DHT22;46566;52.700;6.192;2023-04-08T09:16:27;15.50;99.90
60717;DHT22;46566;52.700;6.192;2023-04-08T09:18:56;15.50;99.90
60717;DHT22;46566;52.700;6.192;2023-04-08T09:21:32;15.30;99.90
60717;DHT22;46566;52.700;6.192;2023-04-08T09:23:59;14.90;99.90
60717;DHT22;46566;52.700;6.192;2023-04-08T09:26:25;14.60;99.90
60717;DHT22;46566;52.700;6.192;2023-04-08T09:29:02;14.60;99.90
60717;DHT22;46566;52.700;6.192;2023-04-08T09:31:29;14.50;99.90
60717;DHT22;46566;52.700;6.192;2023-04-08T09:33:59;14.50;99.90
60717;DHT22;46566;52.700;6.192;2023-04-08T09:36:25;14.30;99.90
60717;DHT22;46566;52.700;6.192;2023-04-08T09:38:54;14.40;99.90
60717;DHT22;46566;52.700;6.192;2023-04-08T09:41:20;14.20;99.90
60717;DHT22;46566;52.700;6.192;2023-04-08T09:43:46;14.20;99.90
60717;DHT22;46566;52.700;6.192;2023-04-08T09:47:00;14.20;99.90
60717;DHT22;46566;52.700;6.192;2023-04-08T09:49:10;14.30;99.90
60717;DHT22;46566;52.700;6.192;2023-04-08T09:51:42;14.20;99.90
60717;DHT22;46566;52.700;6.192;2023-04-08T09:54:13;14.20;99.90
60717;DHT22;46566;52.700;6.192;2023-04-08T09:56:40;14.10;99.90
60717;DHT22;46566;52.700;6.192;2023-04-08T09:59:08;14.20;99.90
60717;DHT22;46566;52.700;6.192;2023-04-08T10:01:36;14.40;99.90
60717;DHT22;46566;52.700;6.192;2023-04-08T10:04:09;14.60;99.90
60717;DHT22;46566;52.700;6.192;2023-04-08T10:06:36;14.50;99.90
60717;DHT22;46566;52.700;6.192;2023-04-08T10:09:03;14.30;99.90
60717;DHT22;46566;52.700;6.192;2023-04-08T10:11:29;14.20;99.90
60717;DHT22;46566;52.700;6.192;2023-04-08T10:13:55;14.30;99.90
60717;DHT22;46566;52.700;6.192;2023-04-08T10:16:21;14.30;99.90
60717;DHT22;46566;52.700;6.192;2023-04-08T10:18:48;14.30;99.90
60717;DHT22;46566;52.700;6.192;2023-04-08T10:21:33;14.30;99.90
60717;DHT22;46566;52.700;6.192;2023-04-08T10:23:59;14.40;99.90
60717;DHT22;46566;52.700;6.192;2023-04-08T10:26:48;14.30;99.90
60717;DHT22;46566;52.700;6.192;2023-04-08T10:29:30;14.40;99.90
60717;DHT22;46566;52.700;6.192;2023-04-08T10:31:56;14.40;99.90
60717;DHT22;46566;52.700;6.192;2023-04-08T10:34:22;14.50;99.90
60717;DHT22;46566;52.700;6.192;2023-04-08T10:36:52;14.50;99.90
60717;DHT22;46566;52.700;6.192;2023-04-08T10:39:18;14.60;99.90
60717;DHT22;46566;52.700;6.192;2023-04-08T10:41:45;14.70;99.90
60717;DHT22;46566;52.700;6.192;2023-04-08T10:44:14;14.80;99.90
60717;DHT22;46566;52.700;6.192;2023-04-08T10:46:41;14.80;99.90
60717;DHT22;46566;52.700;6.192;2023-04-08T10:49:07;14.90;99.90
60717;DHT22;46566;52.700;6.192;2023-04-08T10:51:33;15.10;99.90
60717;DHT22;46566;52.700;6.192;2023-04-08T10:54:06;15.10;99.90
60717;DHT22;46566;52.700;6.192;2023-04-08T10:56:32;15.30;99.90
60717;DHT22;46566;52.700;6.192;2023-04-08T10:58:58;15.40;99.90
60717;DHT22;46566;52.700;6.192;2023-04-08T11:01:24;15.40;99.90
60717;DHT22;46566;52.700;6.192;2023-04-08T11:03:50;15.30;99.90
60717;DHT22;46566;52.700;6.192;2023-04-08T11:06:15;15.20;99.90
60717;DHT22;46566;52.700;6.192;2023-04-08T11:08:42;15.10;99.90
60717;DHT22;46566;52.700;6.192;2023-04-08T11:11:09;15.10;99.90
60717;DHT22;46566;52.700;6.192;2023-04-08T11:13:42;14.80;99.90
60717;DHT22;46566;52.700;6.192;2023-04-08T11:16:09;14.80;99.90
60717;DHT22;46566;52.700;6.192;2023-04-08T11:18:36;14.60;99.90
60717;DHT22;46566;52.700;6.192;2023-04-08T11:21:02;14.50;99.90
60717;DHT22;46566;52.700;6.192;2023-04-08T11:23:28;14.60;99.90
60717;DHT22;46566;52.700;6.192;2023-04-08T11:25:54;14.90;99.90
60717;DHT22;46566;52.700;6.192;2023-04-08T11:28:20;15.20;99.90
60717;DHT22;46566;52.700;6.192;2023-04-08T11:30:46;15.50;99.90
60717;DHT22;46566;52.700;6.192;2023-04-08T11:33:12;15.50;98.00
60717;DHT22;46566;52.700;6.192;2023-04-08T11:35:41;15.40;99.90
60717;DHT22;46566;52.700;6.192;2023-04-08T11:38:08;15.30;98.50
60717;DHT22;46566;52.700;6.192;2023-04-08T11:40:33;15.20;99.90
60717;DHT22;46566;52.700;6.192;2023-04-08T11:42:59;15.20;99.90
60717;DHT22;46566;52.700;6.192;2023-04-08T11:45:36;15.20;99.90
60717;DHT22;46566;52.700;6.192;2023-04-08T11:48:07;15.30;99.90
60717;DHT22;46566;52.700;6.192;2023-04-08T11:50:33;15.30;90.90
60717;DHT22;46566;52.700;6.192;2023-04-08T11:52:58;15.40;99.90
60717;DHT22;46566;52.700;6.192;2023-04-08T11:55:31;15.50;99.90
60717;DHT22;46566;52.700;6.192;2023-04-08T11:58:00;15.60;99.90
60717;DHT22;46566;52.700;6.192;2023-04-08T12:00:26;15.90;99.90
60717;DHT22;46566;52.700;6.192;2023-04-08T12:02:54;16.00;99.90
60717;DHT22;46566;52.700;6.192;2023-04-08T12:05:20;16.10;99.90
60717;DHT22;46566;52.700;6.192;2023-04-08T12:07:46;16.30;99.90
60717;DHT22;46566;52.700;6.192;2023-04-08T12:10:14;16.30;94.40
60717;DHT22;46566;52.700;6.192;2023-04-08T12:15:26;16.60;85.50
60717;DHT22;46566;52.700;6.192;2023-04-08T12:17:51;16.80;99.10
60717;DHT22;46566;52.700;6.192;2023-04-08T12:20:17;17.00;99.90
60717;DHT22;46566;52.700;6.192;2023-04-08T12:22:43;17.00;95.10
60717;DHT22;46566;52.700;6.192;2023-04-08T12:25:08;17.10;99.90
60717;DHT22;46566;52.700;6.192;2023-04-08T12:27:34;17.00;93.30
60717;DHT22;46566;52.700;6.192;2023-04-08T12:30:00;17.00;95.60
60717;DHT22;46566;52.700;6.192;2023-04-08T12:32:26;17.20;99.90
60717;DHT22;46566;52.700;6.192;2023-04-08T12:34:52;17.20;93.80
60717;DHT22;46566;52.700;6.192;2023-04-08T12:37:18;16.80;97.60
60717;DHT22;46566;52.700;6.192;2023-04-08T12:39:45;16.60;99.90
60717;DHT22;46566;52.700;6.192;2023-04-08T12:42:10;16.40;97.70
60717;DHT22;46566;52.700;6.192;2023-04-08T12:44:36;16.50;99.90
60717;DHT22;46566;52.700;6.192;2023-04-08T12:47:02;16.70;99.90
60717;DHT22;46566;52.700;6.192;2023-04-08T12:49:27;16.90;99.90
60717;DHT22;46566;52.700;6.192;2023-04-08T12:51:53;17.00;94.40
60717;DHT22;46566;52.700;6.192;2023-04-08T12:54:19;17.00;95.00
60717;DHT22;46566;52.700;6.192;2023-04-08T12:56:45;17.00;99.90
60717;DHT22;46566;52.700;6.192;2023-04-08T12:59:13;17.00;98.30
60717;DHT22;46566;52.700;6.192;2023-04-08T13:01:38;16.90;99.90
60717;DHT22;46566;52.700;6.192;2023-04-08T13:04:04;16.90;99.90
60717;DHT22;46566;52.700;6.192;2023-04-08T13:06:29;16.70;99.90
60717;DHT22;46566;52.700;6.192;2023-04-08T13:08:56;16.60;99.90
60717;DHT22;46566;52.700;6.192;2023-04-08T13:11:22;16.40;99.90
60717;DHT22;46566;52.700;6.192;2023-04-08T13:13:47;16.30;99.90
60717;DHT22;46566;52.700;6.192;2023-04-08T13:16:13;16.30;99.90
60717;DHT22;46566;52.700;6.192;2023-04-08T13:21:06;16.60;99.90
60717;DHT22;46566;52.700;6.192;2023-04-08T13:23:31;16.70;99.90
60717;DHT22;46566;52.700;6.192;2023-04-08T13:25:57;16.50;99.90
60717;DHT22;46566;52.700;6.192;2023-04-08T13:28:23;16.40;99.90
60717;DHT22;46566;52.700;6.192;2023-04-08T13:30:48;16.40;99.90
60717;DHT22;46566;52.700;6.192;2023-04-08T13:33:14;16.40;99.90
60717;DHT22;46566;52.700;6.192;2023-04-08T13:35:40;16.20;99.90
60717;DHT22;46566;52.700;6.192;2023-04-08T13:38:05;16.10;99.90
60717;DHT22;46566;52.700;6.192;2023-04-08T13:40:31;15.90;99.90
60717;DHT22;46566;52.700;6.192;2023-04-08T13:42:57;15.90;99.90
60717;DHT22;46566;52.700;6.192;2023-04-08T13:45:23;15.70;99.90
60717;DHT22;46566;52.700;6.192;2023-04-08T13:47:48;15.70;99.90
60717;DHT22;46566;52.700;6.192;2023-04-08T13:50:14;15.50;99.90
60717;DHT22;46566;52.700;6.192;2023-04-08T13:52:40;15.50;99.90
60717;DHT22;46566;52.700;6.192;2023-04-08T13:55:05;15.60;99.90
60717;DHT22;46566;52.700;6.192;2023-04-08T13:57:31;15.50;99.90
60717;DHT22;46566;52.700;6.192;2023-04-08T13:59:56;15.60;99.90
60717;DHT22;46566;52.700;6.192;2023-04-08T14:02:22;15.40;99.90
60717;DHT22;46566;52.700;6.192;2023-04-08T14:04:48;15.40;99.90
60717;DHT22;46566;52.700;6.192;2023-04-08T14:07:14;15.50;99.90
60717;DHT22;46566;52.700;6.192;2023-04-08T14:09:39;15.60;99.90
60717;DHT22;46566;52.700;6.192;2023-04-08T14:12:05;15.40;99.90
60717;DHT22;46566;52.700;6.192;2023-04-08T14:14:31;15.20;99.90
60717;DHT22;46566;52.700;6.192;2023-04-08T14:16:56;15.10;99.90
60717;DHT22;46566;52.700;6.192;2023-04-08T14:19:22;15.00;99.90
60717;DHT22;46566;52.700;6.192;2023-04-08T14:21:48;15.00;99.90
60717;DHT22;46566;52.700;6.192;2023-04-08T14:24:14;14.90;99.90
60717;DHT22;46566;52.700;6.192;2023-04-08T14:26:39;14.80;99.90
60717;DHT22;46566;52.700;6.192;2023-04-08T14:29:05;14.70;99.90
60717;DHT22;46566;52.700;6.192;2023-04-08T14:31:32;14.50;99.90
60717;DHT22;46566;52.700;6.192;2023-04-08T14:33:58;14.40;99.90
60717;DHT22;46566;52.700;6.192;2023-04-08T14:36:23;14.30;99.90
60717;DHT22;46566;52.700;6.192;2023-04-08T14:38:50;14.30;99.90
60717;DHT22;46566;52.700;6.192;2023-04-08T14:41:16;14.30;99.90
60717;DHT22;46566;52.700;6.192;2023-04-08T14:43:41;14.10;99.90
60717;DHT22;46566;52.700;6.192;2023-04-08T14:46:07;14.10;99.90
60717;DHT22;46566;52.700;6.192;2023-04-08T14:48:33;14.00;99.90
60717;DHT22;46566;52.700;6.192;2023-04-08T14:50:58;13.90;99.90
60717;DHT22;46566;52.700;6.192;2023-04-08T14:53:24;13.80;99.90
60717;DHT22;46566;52.700;6.192;2023-04-08T14:55:50;13.70;99.90
60717;DHT22;46566;52.700;6.192;2023-04-08T14:58:16;13.60;99.90
60717;DHT22;46566;52.700;6.192;2023-04-08T15:00:42;13.50;99.90
60717;DHT22;46566;52.700;6.192;2023-04-08T15:03:09;13.50;99.90
60717;DHT22;46566;52.700;6.192;2023-04-08T15:05:38;13.40;99.90
60717;DHT22;46566;52.700;6.192;2023-04-08T15:08:04;13.30;99.90
60717;DHT22;46566;52.700;6.192;2023-04-08T15:10:29;13.30;99.90
60717;DHT22;46566;52.700;6.192;2023-04-08T15:12:56;13.30;99.90
60717;DHT22;46566;52.700;6.192;2023-04-08T15:15:21;13.30;99.90
60717;DHT22;46566;52.700;6.192;2023-04-08T15:17:47;13.10;99.90
60717;DHT22;46566;52.700;6.192;2023-04-08T15:20:12;13.10;99.90
60717;DHT22;46566;52.700;6.192;2023-04-08T15:22:38;13.10;99.90
60717;DHT22;46566;52.700;6.192;2023-04-08T15:25:04;13.20;99.90
60717;DHT22;46566;52.700;6.192;2023-04-08T15:27:30;13.20;99.90
60717;DHT22;46566;52.700;6.192;2023-04-08T15:29:56;13.20;99.90
60717;DHT22;46566;52.700;6.192;2023-04-08T15:32:22;13.20;99.90
60717;DHT22;46566;52.700;6.192;2023-04-08T15:34:47;13.10;99.90
60717;DHT22;46566;52.700;6.192;2023-04-08T15:37:15;13.10;99.90
60717;DHT22;46566;52.700;6.192;2023-04-08T15:39:40;13.00;99.90
60717;DHT22;46566;52.700;6.192;2023-04-08T15:42:06;12.90;99.90
60717;DHT22;46566;52.700;6.192;2023-04-08T15:44:32;12.80;99.90
60717;DHT22;46566;52.700;6.192;2023-04-08T15:46:57;12.80;99.90
60717;DHT22;46566;52.700;6.192;2023-04-08T15:49:23;12.80;99.90
60717;DHT22;46566;52.700;6.192;2023-04-08T15:51:48;12.80;99.90